Temp: 12.8°C   Baro: 1022.4mb
  Wind: 0.0mph   Dir: NE (54°)
  Rain: 0.0mm (0.0mm/hr)
  Solar: 0W/m2  Hum: 82%

Historic data

Bath Spa Weather Station Historical Data
Daily Summary for September 7, 2019 Units:  Both    English   Metric
Daily Weekly Monthly Yearly Custom
  High: Low: Average:
Temperature: 58.8 °F /  14.9 °C 46.6 °F /  8.1 °C 53.1 °F /  11.7 °C
Dew Point: 56.5 °F /  13.6 °C 44.1 °F /  6.7 °C 50.7 °F /  10.4 °C
Humidity: 94% 87% 91%
Wind Speed: 9.4mph /  15.1km/h - 2.4mph /  3.9km/h
Wind Gust: 19mph /  30.6km/h - -
Wind- - SW
Pressure: 30.04 in /  1017.2 hPa 29.80 in /  1009 hPa -
Precipitation: 0.15 in /  3.81 mm    
Historical Graphs
 
 
Tabular Data for September 7, 2019
Time Temperature Dew Point Pressure Wind Wind Speed Wind Gust Humidity Rainfall Rate (Hourly) solar
00:04 47.4 °F /  8.6 °C 44.3 °F /  6.8 °C 30.03in /  1016.8hPa Calm   1mph /  1.6km/h 89% 0.00in /  0mm 0 W/m2
00:09 47.4 °F /  8.6 °C 44.4 °F /  6.9 °C 30.03in /  1016.8hPa Calm     89.3% 0.00in /  0mm 0 W/m2
00:14 47.4 °F /  8.6 °C 44.7 °F /  7.1 °C 30.04in /  1017.2hPa Calm     90% 0.00in /  0mm 0 W/m2
00:19 47.4 °F /  8.6 °C 44.7 °F /  7.1 °C 30.03in /  1016.8hPa Calm     90% 0.00in /  0mm 0 W/m2
00:24 47.3 °F /  8.5 °C 44.6 °F /  7 °C 30.03in /  1016.8hPa Calm     90% 0.00in /  0mm 0 W/m2
00:29 47.3 °F /  8.5 °C 44.6 °F /  7 °C 30.04in /  1017.2hPa Calm     90% 0.00in /  0mm 0 W/m2
00:34 47.3 °F /  8.5 °C 44.6 °F /  7 °C 30.03in /  1016.8hPa Calm     90% 0.00in /  0mm 0 W/m2
00:39 47.3 °F /  8.5 °C 44.6 °F /  7 °C 30.03in /  1016.8hPa Calm     90% 0.00in /  0mm 0 W/m2
00:44 47.2 °F /  8.4 °C 44.5 °F /  6.9 °C 30.03in /  1016.8hPa Calm     90% 0.00in /  0mm 0 W/m2
00:49 47.3 °F /  8.5 °C 44.6 °F /  7 °C 30.03in /  1016.8hPa Calm     90% 0.00in /  0mm 0 W/m2
00:54 47.3 °F /  8.5 °C 44.6 °F /  7 °C 30.03in /  1016.8hPa Calm     90% 0.00in /  0mm 0 W/m2
00:59 47.1 °F /  8.4 °C 44.4 °F /  6.9 °C 30.02in /  1016.5hPa Calm     90% 0.00in /  0mm 0 W/m2
01:04 47.1 °F /  8.4 °C 44.4 °F /  6.9 °C 30.02in /  1016.5hPa Calm     90% 0.00in /  0mm 0 W/m2
01:09 47 °F /  8.3 °C 44.3 °F /  6.8 °C 30.03in /  1016.8hPa Calm     90% 0.00in /  0mm 0 W/m2
01:14 47 °F /  8.3 °C 44.3 °F /  6.8 °C 30.03in /  1016.8hPa Calm     90% 0.00in /  0mm 0 W/m2
01:19 46.9 °F /  8.3 °C 44.2 °F /  6.8 °C 30.03in /  1016.8hPa Calm     90% 0.00in /  0mm 0 W/m2
01:24 46.8 °F /  8.2 °C 44.2 °F /  6.8 °C 30.03in /  1016.8hPa Calm   1mph /  1.6km/h 90.3% 0.00in /  0mm 0 W/m2
01:29 46.8 °F /  8.2 °C 44.2 °F /  6.8 °C 30.03in /  1016.8hPa Calm     91% 0.00in /  0mm 0 W/m2
01:34 46.8 °F /  8.2 °C 44.3 °F /  6.8 °C 30.03in /  1016.8hPa Calm     91% 0.00in /  0mm 0 W/m2
01:39 46.8 °F /  8.2 °C 44.3 °F /  6.8 °C 30.03in /  1016.8hPa Calm     91% 0.00in /  0mm 0 W/m2
01:44 46.8 °F /  8.2 °C 44.2 °F /  6.8 °C 30.03in /  1016.8hPa Calm     91% 0.00in /  0mm 0 W/m2
01:49 46.8 °F /  8.2 °C 44.2 °F /  6.8 °C 30.03in /  1016.8hPa Calm     91% 0.00in /  0mm 0 W/m2
01:54 46.7 °F /  8.2 °C 44.2 °F /  6.8 °C 30.03in /  1016.8hPa Calm     91% 0.00in /  0mm 0 W/m2
01:59 46.6 °F /  8.1 °C 44.1 °F /  6.7 °C 30.03in /  1016.8hPa Calm     91% 0.00in /  0mm 0 W/m2
02:04 46.7 °F /  8.2 °C 44.1 °F /  6.7 °C 30.03in /  1016.8hPa Calm     91% 0.00in /  0mm 0 W/m2
02:09 46.8 °F /  8.2 °C 44.2 °F /  6.8 °C 30.03in /  1016.8hPa Calm     91% 0.00in /  0mm 0 W/m2
02:14 46.8 °F /  8.2 °C 44.2 °F /  6.8 °C 30.04in /  1017.2hPa Calm     91% 0.00in /  0mm 0 W/m2
02:19 46.8 °F /  8.2 °C 44.2 °F /  6.8 °C 30.04in /  1017.2hPa Calm     91% 0.00in /  0mm 0 W/m2
02:24 46.9 °F /  8.3 °C 44.8 °F /  7.1 °C 30.04in /  1017.2hPa Calm     92% 0.00in /  0mm 0 W/m2
02:29 46.9 °F /  8.3 °C 44.8 °F /  7.1 °C 30.04in /  1017.2hPa Calm     92% 0.00in /  0mm 0 W/m2
02:34 47.1 °F /  8.4 °C 45 °F /  7.2 °C 30.04in /  1017.2hPa Calm     92% 0.00in /  0mm 0 W/m2
02:39 47.1 °F /  8.4 °C 45 °F /  7.2 °C 30.04in /  1017.2hPa Calm     92% 0.00in /  0mm 0 W/m2
02:44 47.2 °F /  8.4 °C 45.1 °F /  7.3 °C 30.04in /  1017.2hPa Calm     92% 0.00in /  0mm 0 W/m2
02:49 47.3 °F /  8.5 °C 45.1 °F /  7.3 °C 30.04in /  1017.2hPa Calm     92% 0.00in /  0mm 0 W/m2
02:54 47.3 °F /  8.5 °C 45.1 °F /  7.3 °C 30.03in /  1016.8hPa Calm     92% 0.00in /  0mm 0 W/m2
02:59 47.4 °F /  8.6 °C 45.2 °F /  7.3 °C 30.02in /  1016.5hPa Calm     92% 0.00in /  0mm 0 W/m2
03:04 47.5 °F /  8.6 °C 45.3 °F /  7.4 °C 30.02in /  1016.5hPa Calm     92% 0.00in /  0mm 0 W/m2
03:09 47.7 °F /  8.7 °C 45.5 °F /  7.5 °C 30.02in /  1016.5hPa Calm     92% 0.00in /  0mm 0 W/m2
03:14 47.7 °F /  8.7 °C 45.5 °F /  7.5 °C 30.02in /  1016.5hPa Calm     92% 0.00in /  0mm 0 W/m2
03:19 47.7 °F /  8.7 °C 45.5 °F /  7.5 °C 30.02in /  1016.5hPa Calm     92% 0.00in /  0mm 0 W/m2
03:24 47.8 °F /  8.8 °C 45.6 °F /  7.6 °C 30.02in /  1016.5hPa Calm     92% 0.00in /  0mm 0 W/m2
03:29 47.8 °F /  8.8 °C 45.7 °F /  7.6 °C 30.02in /  1016.5hPa Calm     92% 0.00in /  0mm 0 W/m2
03:34 47.8 °F /  8.8 °C 45.7 °F /  7.6 °C 30.02in /  1016.5hPa Calm     92% 0.00in /  0mm 0 W/m2
03:39 47.8 °F /  8.8 °C 45.7 °F /  7.6 °C 30.02in /  1016.5hPa Calm     92% 0.00in /  0mm 0 W/m2
03:44 47.8 °F /  8.8 °C 45.7 °F /  7.6 °C 30.03in /  1016.8hPa Calm     92% 0.00in /  0mm 0 W/m2
03:49 47.8 °F /  8.8 °C 45.7 °F /  7.6 °C 30.03in /  1016.8hPa Calm     92% 0.00in /  0mm 0 W/m2
03:54 48 °F /  8.9 °C 45.9 °F /  7.7 °C 30.03in /  1016.8hPa Calm     92% 0.00in /  0mm 0 W/m2
03:59 48.1 °F /  8.9 °C 45.9 °F /  7.7 °C 30.03in /  1016.8hPa Calm     92% 0.00in /  0mm 0 W/m2
04:04 48.2 °F /  9 °C 46.1 °F /  7.8 °C 30.03in /  1016.8hPa Calm     92.4% 0.00in /  0mm 0 W/m2
04:09 48.2 °F /  9 °C 46 °F /  7.8 °C 30.03in /  1016.8hPa Calm     92% 0.00in /  0mm 0 W/m2
04:14 48.4 °F /  9.1 °C 46.2 °F /  7.9 °C 30.04in /  1017.2hPa Calm     92% 0.00in /  0mm 0 W/m2
04:19 48.5 °F /  9.2 °C 46.3 °F /  7.9 °C 30.04in /  1017.2hPa Calm     92% 0.00in /  0mm 0 W/m2
04:24 48.6 °F /  9.2 °C 46.5 °F /  8.1 °C 30.04in /  1017.2hPa Calm     92.6% 0.00in /  0mm 0 W/m2
04:29 48.6 °F /  9.2 °C 46.7 °F /  8.2 °C 30.03in /  1016.8hPa Calm     93% 0.00in /  0mm 0 W/m2
04:34 48.7 °F /  9.3 °C 46.8 °F /  8.2 °C 30.03in /  1016.8hPa West 0.3mph /  0.5km/h 2mph /  3.2km/h 93% 0.00in /  0mm 0 W/m2
04:39 48.6 °F /  9.2 °C 46.7 °F /  8.2 °C 30.02in /  1016.5hPa Calm   2mph /  3.2km/h 93% 0.00in /  0mm 0 W/m2
04:44 48.6 °F /  9.2 °C 46.6 °F /  8.1 °C 30.02in /  1016.5hPa Calm   1mph /  1.6km/h 93% 0.00in /  0mm 0 W/m2
04:49 48.6 °F /  9.2 °C 46.6 °F /  8.1 °C 30.02in /  1016.5hPa Calm     93% 0.00in /  0mm 0 W/m2
04:54 48.6 °F /  9.2 °C 46.6 °F /  8.1 °C 30.02in /  1016.5hPa Calm     93% 0.00in /  0mm 0 W/m2
04:59 48.6 °F /  9.2 °C 46.6 °F /  8.1 °C 30.01in /  1016.1hPa Calm     93% 0.01in /  0.25mm 0 W/m2
05:04 48.6 °F /  9.2 °C 46.7 °F /  8.2 °C 30.01in /  1016.1hPa Calm     93% 0.01in /  0.25mm 0 W/m2
05:09 48.7 °F /  9.3 °C 46.8 °F /  8.2 °C 30.02in /  1016.5hPa Calm     93% 0.01in /  0.25mm 0 W/m2
05:14 48.7 °F /  9.3 °C 46.8 °F /  8.2 °C 30.02in /  1016.5hPa Calm   1mph /  1.6km/h 93% 0.01in /  0.25mm 0 W/m2
05:19 48.7 °F /  9.3 °C 46.8 °F /  8.2 °C 30.03in /  1016.8hPa Calm   1mph /  1.6km/h 93% 0.02in /  0.51mm 0 W/m2
05:24 48.8 °F /  9.3 °C 46.8 °F /  8.2 °C 30.03in /  1016.8hPa West 0.5mph /  0.8km/h 2mph /  3.2km/h 93% 0.02in /  0.51mm 0 W/m2
05:29 48.9 °F /  9.4 °C 46.9 °F /  8.3 °C 30.02in /  1016.5hPa Calm     93% 0.02in /  0.51mm 0 W/m2
05:34 49.1 °F /  9.5 °C 47.1 °F /  8.4 °C 30.02in /  1016.5hPa West 0.2mph /  0.3km/h 1mph /  1.6km/h 93% 0.02in /  0.51mm 0 W/m2
05:39 49.1 °F /  9.5 °C 47.1 °F /  8.4 °C 30.02in /  1016.5hPa West 0.1mph /  0.2km/h 1mph /  1.6km/h 93% 0.03in /  0.76mm 0 W/m2
05:44 49 °F /  9.4 °C 47 °F /  8.3 °C 30.01in /  1016.1hPa Calm   1mph /  1.6km/h 93% 0.04in /  1.02mm 0 W/m2
05:49 48.9 °F /  9.4 °C 46.9 °F /  8.3 °C 30.01in /  1016.1hPa Calm     93% 0.04in /  1.02mm 0 W/m2
05:54 49 °F /  9.4 °C 47 °F /  8.3 °C 30.01in /  1016.1hPa Calm     93% 0.05in /  1.27mm 0 W/m2
05:59 49.1 °F /  9.5 °C 47.1 °F /  8.4 °C 30.01in /  1016.1hPa Calm     93% 0.05in /  1.27mm 0 W/m2
06:04 49.1 °F /  9.5 °C 47.1 °F /  8.4 °C 30.01in /  1016.1hPa Calm     93% 0.06in /  1.52mm 0 W/m2
06:09 49.1 °F /  9.5 °C 47.1 °F /  8.4 °C 30.01in /  1016.1hPa Calm     93% 0.07in /  1.78mm 0 W/m2
06:14 49.2 °F /  9.6 °C 47.2 °F /  8.4 °C 30.02in /  1016.5hPa Calm     93% 0.07in /  1.78mm 0 W/m2
06:19 49.2 °F /  9.6 °C 47.2 °F /  8.4 °C 30.02in /  1016.5hPa Calm     93% 0.08in /  2.03mm 0 W/m2
06:24 49.4 °F /  9.7 °C 47.4 °F /  8.6 °C 30.02in /  1016.5hPa Calm     93% 0.09in /  2.29mm 0 W/m2
06:29 49.3 °F /  9.6 °C 47.3 °F /  8.5 °C 30.02in /  1016.5hPa Calm     93% 0.09in /  2.29mm 0 W/m2
06:34 49.3 °F /  9.6 °C 47.3 °F /  8.5 °C 30.02in /  1016.5hPa Calm     93% 0.10in /  2.54mm 0 W/m2
06:39 49.4 °F /  9.7 °C 47.4 °F /  8.6 °C 30.02in /  1016.5hPa West 0.1mph /  0.2km/h 1mph /  1.6km/h 93% 0.09in /  2.29mm 0 W/m2
06:44 49.5 °F /  9.7 °C 47.5 °F /  8.6 °C 30.02in /  1016.5hPa Calm   1mph /  1.6km/h 93% 0.09in /  2.29mm 0 W/m2
06:49 49.5 °F /  9.7 °C 47.6 °F /  8.7 °C 30.02in /  1016.5hPa Calm     93.2% 0.09in /  2.29mm 0 W/m2
06:54 49.5 °F /  9.7 °C 47.8 °F /  8.8 °C 30.02in /  1016.5hPa West 0.1mph /  0.2km/h 1mph /  1.6km/h 94% 0.09in /  2.29mm 0 W/m2
06:59 49.5 °F /  9.7 °C 47.8 °F /  8.8 °C 30.02in /  1016.5hPa West 0.5mph /  0.8km/h 2mph /  3.2km/h 94% 0.08in /  2.03mm 0 W/m2
07:04 49.5 °F /  9.7 °C 47.8 °F /  8.8 °C 30.01in /  1016.1hPa Calm   1mph /  1.6km/h 94% 0.07in /  1.78mm 0 W/m2
07:09 49.5 °F /  9.7 °C 47.8 °F /  8.8 °C 30.01in /  1016.1hPa West 0.2mph /  0.3km/h 2mph /  3.2km/h 94% 0.06in /  1.52mm 0 W/m2
07:14 49.5 °F /  9.7 °C 47.8 °F /  8.8 °C 30.01in /  1016.1hPa West 0.6mph /  1km/h 2mph /  3.2km/h 94% 0.06in /  1.52mm 0 W/m2
07:19 49.4 °F /  9.7 °C 47.7 °F /  8.7 °C 30.01in /  1016.1hPa Calm   2mph /  3.2km/h 94% 0.05in /  1.27mm 0 W/m2
07:24 49.5 °F /  9.7 °C 47.8 °F /  8.8 °C 30.01in /  1016.1hPa Calm     94% 0.03in /  0.76mm 0 W/m2
07:29 49.5 °F /  9.7 °C 47.8 °F /  8.8 °C 30.01in /  1016.1hPa Calm   1mph /  1.6km/h 94% 0.02in /  0.51mm 0 W/m2
07:34 49.3 °F /  9.6 °C 47.7 °F /  8.7 °C 30.01in /  1016.1hPa West 0.1mph /  0.2km/h 1mph /  1.6km/h 94% 0.02in /  0.51mm 0 W/m2
07:39 49.3 °F /  9.6 °C 47.7 °F /  8.7 °C 30.01in /  1016.1hPa Calm   1mph /  1.6km/h 94% 0.01in /  0.25mm 0 W/m2
07:44 49.5 °F /  9.7 °C 47.8 °F /  8.8 °C 30.01in /  1016.1hPa Calm     94% 0.00in /  0mm 0 W/m2
07:49 49.5 °F /  9.7 °C 47.8 °F /  8.8 °C 30.01in /  1016.1hPa Calm     94% 0.00in /  0mm 5 W/m2
07:54 49.5 °F /  9.7 °C 47.8 °F /  8.8 °C 30.01in /  1016.1hPa Calm     94% 0.00in /  0mm 11 W/m2
07:59 49.5 °F /  9.7 °C 47.9 °F /  8.8 °C 30.01in /  1016.1hPa Calm   1mph /  1.6km/h 94% 0.00in /  0mm 12 W/m2
08:04 49.6 °F /  9.8 °C 48 °F /  8.9 °C 30.01in /  1016.1hPa West 0.1mph /  0.2km/h 1mph /  1.6km/h 94% 0.00in /  0mm 21 W/m2
08:09 49.6 °F /  9.8 °C 48 °F /  8.9 °C 30.00in /  1015.8hPa West 0.2mph /  0.3km/h 1mph /  1.6km/h 94% 0.00in /  0mm 25 W/m2
08:14 49.6 °F /  9.8 °C 48 °F /  8.9 °C 30.00in /  1015.8hPa West 0.8mph /  1.3km/h 2mph /  3.2km/h 94% 0.00in /  0mm 26 W/m2
08:19 49.6 °F /  9.8 °C 48 °F /  8.9 °C 30.00in /  1015.8hPa West 0.3mph /  0.5km/h 2mph /  3.2km/h 94% 0.00in /  0mm 32 W/m2
08:24 49.7 °F /  9.8 °C 48.1 °F /  8.9 °C 30.00in /  1015.8hPa West 0.6mph /  1km/h 4mph /  6.4km/h 94% 0.00in /  0mm 32 W/m2
08:29 49.8 °F /  9.9 °C 48.2 °F /  9 °C 30.00in /  1015.8hPa SSW 0.6mph /  1km/h 3mph /  4.8km/h 94% 0.01in /  0.25mm 28 W/m2
08:34 49.8 °F /  9.9 °C 48.2 °F /  9 °C 30.00in /  1015.8hPa South 1.3mph /  2.1km/h 5mph /  8km/h 94% 0.01in /  0.25mm 30 W/m2
08:39 49.8 °F /  9.9 °C 48.2 °F /  9 °C 30.00in /  1015.8hPa South 0.3mph /  0.5km/h 5mph /  8km/h 94% 0.01in /  0.25mm 33 W/m2
08:44 49.9 °F /  9.9 °C 48.3 °F /  9.1 °C 30.00in /  1015.8hPa South 0.9mph /  1.4km/h 4mph /  6.4km/h 94% 0.01in /  0.25mm 40 W/m2
08:49 50 °F /  10 °C 48.4 °F /  9.1 °C 30.00in /  1015.8hPa SSE 2.2mph /  3.5km/h 6mph /  9.7km/h 94% 0.01in /  0.25mm 46 W/m2
08:54 50.1 °F /  10.1 °C 48.5 °F /  9.2 °C 30.00in /  1015.8hPa SSE 1mph /  1.6km/h 5mph /  8km/h 94% 0.01in /  0.25mm 42 W/m2
08:59 50.3 °F /  10.2 °C 48.7 °F /  9.3 °C 30.00in /  1015.8hPa SSE 1.7mph /  2.7km/h 4mph /  6.4km/h 94% 0.01in /  0.25mm 56 W/m2
09:04 50.4 °F /  10.2 °C 48.7 °F /  9.3 °C 29.99in /  1015.5hPa SSE 0.7mph /  1.1km/h 4mph /  6.4km/h 94% 0.01in /  0.25mm 65 W/m2
09:09 50.4 °F /  10.2 °C 48.8 °F /  9.3 °C 29.99in /  1015.5hPa SSE 1.7mph /  2.7km/h 5mph /  8km/h 94% 0.01in /  0.25mm 70 W/m2
09:14 50.5 °F /  10.3 °C 48.9 °F /  9.4 °C 29.99in /  1015.5hPa SSE 1.3mph /  2.1km/h 5mph /  8km/h 94% 0.01in /  0.25mm 72 W/m2
09:19 50.5 °F /  10.3 °C 48.9 °F /  9.4 °C 30.00in /  1015.8hPa SSE 1.1mph /  1.8km/h 4mph /  6.4km/h 94% 0.01in /  0.25mm 60 W/m2
09:24 50.5 °F /  10.3 °C 48.9 °F /  9.4 °C 30.00in /  1015.8hPa SSE 0.9mph /  1.4km/h 4mph /  6.4km/h 94% 0.01in /  0.25mm 44 W/m2
09:29 50.5 °F /  10.3 °C 48.9 °F /  9.4 °C 29.99in /  1015.5hPa SSE 2.6mph /  4.2km/h 5mph /  8km/h 94% 0.01in /  0.25mm 40 W/m2
09:34 50.5 °F /  10.3 °C 48.9 °F /  9.4 °C 29.99in /  1015.5hPa SSE 1.8mph /  2.9km/h 6mph /  9.7km/h 94% 0.00in /  0mm 46 W/m2
09:39 50.5 °F /  10.3 °C 48.9 °F /  9.4 °C 29.99in /  1015.5hPa SSE 2mph /  3.2km/h 6mph /  9.7km/h 94% 0.00in /  0mm 63 W/m2
09:44 50.5 °F /  10.3 °C 48.9 °F /  9.4 °C 29.99in /  1015.5hPa SSE 1.8mph /  2.9km/h 6mph /  9.7km/h 94% 0.00in /  0mm 63 W/m2
09:49 50.5 °F /  10.3 °C 48.9 °F /  9.4 °C 29.99in /  1015.5hPa SSE 3.5mph /  5.6km/h 7mph /  11.3km/h 94% 0.00in /  0mm 90 W/m2
09:54 50.6 °F /  10.3 °C 49 °F /  9.4 °C 29.98in /  1015.1hPa SSE 3.1mph /  5km/h 9mph /  14.5km/h 94% 0.00in /  0mm 105 W/m2
09:59 50.7 °F /  10.4 °C 48.7 °F /  9.3 °C 29.98in /  1015.1hPa SE 3.2mph /  5.1km/h 9mph /  14.5km/h 93.1% 0.00in /  0mm 102 W/m2
10:04 50.7 °F /  10.4 °C 48.7 °F /  9.3 °C 29.98in /  1015.1hPa SE 2.8mph /  4.5km/h 9mph /  14.5km/h 93% 0.00in /  0mm 88 W/m2
10:09 50.9 °F /  10.5 °C 48.9 °F /  9.4 °C 29.98in /  1015.1hPa ESE 2.4mph /  3.9km/h 8mph /  12.9km/h 93% 0.00in /  0mm 77 W/m2
10:14 50.9 °F /  10.5 °C 48.9 °F /  9.4 °C 29.97in /  1014.8hPa East 1.8mph /  2.9km/h 7mph /  11.3km/h 93% 0.00in /  0mm 65 W/m2
10:19 50.9 °F /  10.5 °C 48.9 °F /  9.4 °C 29.96in /  1014.4hPa ESE 3.1mph /  5km/h 8mph /  12.9km/h 93% 0.00in /  0mm 70 W/m2
10:24 50.9 °F /  10.5 °C 48.9 °F /  9.4 °C 29.96in /  1014.4hPa SE 1.7mph /  2.7km/h 6mph /  9.7km/h 93% 0.00in /  0mm 69 W/m2
10:29 50.9 °F /  10.5 °C 48.9 °F /  9.4 °C 29.96in /  1014.4hPa SE 1mph /  1.6km/h 4mph /  6.4km/h 93% 0.00in /  0mm 69 W/m2
10:34 51.1 °F /  10.6 °C 49 °F /  9.4 °C 29.96in /  1014.4hPa SSE 2.8mph /  4.5km/h 8mph /  12.9km/h 92.3% 0.00in /  0mm 49 W/m2
10:39 51.3 °F /  10.7 °C 49.1 °F /  9.5 °C 29.96in /  1014.4hPa South 3.7mph /  6km/h 13mph /  20.9km/h 92% 0.00in /  0mm 49 W/m2
10:44 51.3 °F /  10.7 °C 49.1 °F /  9.5 °C 29.96in /  1014.4hPa SSE 3.3mph /  5.3km/h 8mph /  12.9km/h 92% 0.00in /  0mm 46 W/m2
10:49 51.4 °F /  10.8 °C 49.2 °F /  9.6 °C 29.96in /  1014.4hPa SSE 3.3mph /  5.3km/h 11mph /  17.7km/h 92% 0.00in /  0mm 90 W/m2
10:54 51.5 °F /  10.8 °C 49.4 °F /  9.7 °C 29.96in /  1014.4hPa South 3.6mph /  5.8km/h 11mph /  17.7km/h 92% 0.00in /  0mm 107 W/m2
10:59 51.7 °F /  10.9 °C 49.2 °F /  9.6 °C 29.96in /  1014.4hPa South 2.4mph /  3.9km/h 9mph /  14.5km/h 91% 0.00in /  0mm 91 W/m2
11:04 51.8 °F /  11 °C 49.3 °F /  9.6 °C 29.96in /  1014.4hPa SSE 3.7mph /  6km/h 9mph /  14.5km/h 91% 0.00in /  0mm 76 W/m2
11:09 51.8 °F /  11 °C 49.3 °F /  9.6 °C 29.96in /  1014.4hPa SSE 3.8mph /  6.1km/h 9mph /  14.5km/h 91% 0.00in /  0mm 69 W/m2
11:14 52 °F /  11.1 °C 49.5 °F /  9.7 °C 29.95in /  1014.1hPa SSE 5.2mph /  8.4km/h 10mph /  16.1km/h 91% 0.00in /  0mm 62 W/m2
11:19 52 °F /  11.1 °C 49.2 °F /  9.6 °C 29.95in /  1014.1hPa SSE 3.1mph /  5km/h 10mph /  16.1km/h 90.1% 0.00in /  0mm 60 W/m2
11:24 52.2 °F /  11.2 °C 49.3 °F /  9.6 °C 29.95in /  1014.1hPa SSE 3.7mph /  6km/h 10mph /  16.1km/h 90% 0.00in /  0mm 54 W/m2
11:29 52.2 °F /  11.2 °C 49.3 °F /  9.6 °C 29.95in /  1014.1hPa SSE 4.1mph /  6.6km/h 10mph /  16.1km/h 90% 0.00in /  0mm 54 W/m2
11:34 52.3 °F /  11.3 °C 49.6 °F /  9.8 °C 29.95in /  1014.1hPa SE 3.8mph /  6.1km/h 9mph /  14.5km/h 90.4% 0.00in /  0mm 46 W/m2
11:39 52.4 °F /  11.3 °C 49.9 °F /  9.9 °C 29.95in /  1014.1hPa SSW 1.8mph /  2.9km/h 9mph /  14.5km/h 91% 0.00in /  0mm 58 W/m2
11:44 52.7 °F /  11.5 °C 50.2 °F /  10.1 °C 29.94in /  1013.8hPa South 4.6mph /  7.4km/h 10mph /  16.1km/h 91% 0.00in /  0mm 56 W/m2
11:49 53 °F /  11.7 °C 50.5 °F /  10.3 °C 29.94in /  1013.8hPa South 5.1mph /  8.2km/h 10mph /  16.1km/h 91% 0.00in /  0mm 69 W/m2
11:54 53.1 °F /  11.7 °C 50.6 °F /  10.3 °C 29.94in /  1013.8hPa South 7.1mph /  11.4km/h 14mph /  22.5km/h 91% 0.00in /  0mm 60 W/m2
11:59 53.2 °F /  11.8 °C 50.7 °F /  10.4 °C 29.94in /  1013.8hPa South 6.3mph /  10.1km/h 14mph /  22.5km/h 91% 0.00in /  0mm 109 W/m2
12:04 53.2 °F /  11.8 °C 50.7 °F /  10.4 °C 29.93in /  1013.4hPa South 6.3mph /  10.1km/h 16mph /  25.7km/h 91% 0.00in /  0mm 109 W/m2
12:09 53.2 °F /  11.8 °C 50.7 °F /  10.4 °C 29.93in /  1013.4hPa South 6.2mph /  10km/h 16mph /  25.7km/h 91% 0.00in /  0mm 91 W/m2
12:14 53.4 °F /  11.9 °C 50.9 °F /  10.5 °C 29.93in /  1013.4hPa South 3.8mph /  6.1km/h 9mph /  14.5km/h 91% 0.00in /  0mm 95 W/m2
12:19 53.4 °F /  11.9 °C 50.9 °F /  10.5 °C 29.93in /  1013.4hPa South 5.3mph /  8.5km/h 13mph /  20.9km/h 91% 0.00in /  0mm 127 W/m2
12:24 53.5 °F /  11.9 °C 51 °F /  10.6 °C 29.92in /  1013.1hPa South 5.4mph /  8.7km/h 13mph /  20.9km/h 91% 0.00in /  0mm 158 W/m2
12:29 53.6 °F /  12 °C 51.1 °F /  10.6 °C 29.92in /  1013.1hPa South 4.8mph /  7.7km/h 13mph /  20.9km/h 91% 0.00in /  0mm 162 W/m2
12:34 53.9 °F /  12.2 °C 51.5 °F /  10.8 °C 29.91in /  1012.8hPa South 5mph /  8km/h 10mph /  16.1km/h 92% 0.00in /  0mm 251 W/m2
12:39 54.1 °F /  12.3 °C 51.8 °F /  11 °C 29.91in /  1012.8hPa South 8.1mph /  13km/h 11mph /  17.7km/h 92% 0.00in /  0mm 241 W/m2
12:44 54.2 °F /  12.3 °C 51.9 °F /  11.1 °C 29.90in /  1012.4hPa South 8.1mph /  13km/h 17mph /  27.4km/h 92% 0.01in /  0.25mm 192 W/m2
12:49 54.5 °F /  12.5 °C 52.2 °F /  11.2 °C 29.90in /  1012.4hPa South 6.3mph /  10.1km/h 18mph /  29km/h 92% 0.01in /  0.25mm 192 W/m2
12:54 54.7 °F /  12.6 °C 52.4 °F /  11.3 °C 29.90in /  1012.4hPa South 8.9mph /  14.3km/h 18mph /  29km/h 92% 0.01in /  0.25mm 183 W/m2
12:59 54.9 °F /  12.7 °C 52.5 °F /  11.4 °C 29.90in /  1012.4hPa South 9.4mph /  15.1km/h 18mph /  29km/h 92% 0.01in /  0.25mm 213 W/m2
13:04 55 °F /  12.8 °C 52.7 °F /  11.5 °C 29.90in /  1012.4hPa SSW 8.2mph /  13.2km/h 18mph /  29km/h 92% 0.01in /  0.25mm 283 W/m2
13:09 55.1 °F /  12.8 °C 52.8 °F /  11.6 °C 29.90in /  1012.4hPa South 6.3mph /  10.1km/h 17mph /  27.4km/h 92% 0.01in /  0.25mm 244 W/m2
13:14 55.4 °F /  13 °C 53.1 °F /  11.7 °C 29.90in /  1012.4hPa South 5mph /  8km/h 17mph /  27.4km/h 92% 0.01in /  0.25mm 172 W/m2
13:19 55.4 °F /  13 °C 53.1 °F /  11.7 °C 29.89in /  1012.1hPa South 5.2mph /  8.4km/h 13mph /  20.9km/h 92% 0.01in /  0.25mm 114 W/m2
13:24 55.6 °F /  13.1 °C 53.2 °F /  11.8 °C 29.89in /  1012.1hPa South 6.5mph /  10.5km/h 11mph /  17.7km/h 92% 0.01in /  0.25mm 144 W/m2
13:29 55.8 °F /  13.2 °C 53.4 °F /  11.9 °C 29.89in /  1012.1hPa SSW 8.9mph /  14.3km/h 17mph /  27.4km/h 91.9% 0.01in /  0.25mm 125 W/m2
13:34 56 °F /  13.3 °C 53.5 °F /  11.9 °C 29.89in /  1012.1hPa SSW 5.5mph /  8.9km/h 17mph /  27.4km/h 91% 0.01in /  0.25mm 90 W/m2
13:39 56.3 °F /  13.5 °C 53.8 °F /  12.1 °C 29.89in /  1012.1hPa SSW 7.9mph /  12.7km/h 16mph /  25.7km/h 91% 0.01in /  0.25mm 72 W/m2
13:44 56.5 °F /  13.6 °C 54 °F /  12.2 °C 29.88in /  1011.7hPa SSW 4.3mph /  6.9km/h 16mph /  25.7km/h 91% 0.01in /  0.25mm 60 W/m2
13:49 56.7 °F /  13.7 °C 54.1 °F /  12.3 °C 29.88in /  1011.7hPa SSW 6mph /  9.7km/h 11mph /  17.7km/h 91% 0.00in /  0mm 76 W/m2
13:54 56.7 °F /  13.7 °C 53.9 °F /  12.2 °C 29.88in /  1011.7hPa SSW 7.7mph /  12.4km/h 16mph /  25.7km/h 90.2% 0.00in /  0mm 86 W/m2
13:59 56.8 °F /  13.8 °C 54 °F /  12.2 °C 29.88in /  1011.7hPa SSW 5.9mph /  9.5km/h 13mph /  20.9km/h 90% 0.00in /  0mm 90 W/m2
14:04 56.8 °F /  13.8 °C 54 °F /  12.2 °C 29.88in /  1011.7hPa South 7.2mph /  11.6km/h 14mph /  22.5km/h 90% 0.00in /  0mm 70 W/m2
14:09 56.8 °F /  13.8 °C 54 °F /  12.2 °C 29.88in /  1011.7hPa SSW 7.4mph /  11.9km/h 17mph /  27.4km/h 90% 0.00in /  0mm 90 W/m2
14:14 56.8 °F /  13.8 °C 54 °F /  12.2 °C 29.87in /  1011.4hPa SSW 5.1mph /  8.2km/h 17mph /  27.4km/h 90% 0.00in /  0mm 69 W/m2
14:19 56.8 °F /  13.8 °C 54 °F /  12.2 °C 29.87in /  1011.4hPa SSW 5.3mph /  8.5km/h 13mph /  20.9km/h 90% 0.00in /  0mm 53 W/m2
14:24 56.8 °F /  13.8 °C 54 °F /  12.2 °C 29.87in /  1011.4hPa SSW 7.1mph /  11.4km/h 12mph /  19.3km/h 90% 0.00in /  0mm 49 W/m2
14:29 56.9 °F /  13.8 °C 54.1 °F /  12.3 °C 29.87in /  1011.4hPa SSW 8.6mph /  13.8km/h 19mph /  30.6km/h 90% 0.00in /  0mm 51 W/m2
14:34 57 °F /  13.9 °C 54.1 °F /  12.3 °C 29.86in /  1011.1hPa SW 5.7mph /  9.2km/h 12mph /  19.3km/h 90% 0.00in /  0mm 62 W/m2
14:39 57.1 °F /  13.9 °C 54.2 °F /  12.3 °C 29.86in /  1011.1hPa SSW 5.6mph /  9km/h 18mph /  29km/h 90% 0.00in /  0mm 62 W/m2
14:44 57.2 °F /  14 °C 54.3 °F /  12.4 °C 29.86in /  1011.1hPa SW 4.8mph /  7.7km/h 11mph /  17.7km/h 90% 0.00in /  0mm 47 W/m2
14:49 57.2 °F /  14 °C 54.3 °F /  12.4 °C 29.87in /  1011.4hPa SW 8mph /  12.9km/h 18mph /  29km/h 90% 0.00in /  0mm 35 W/m2
14:54 57.3 °F /  14.1 °C 54.4 °F /  12.4 °C 29.86in /  1011.1hPa SW 5.9mph /  9.5km/h 14mph /  22.5km/h 90% 0.00in /  0mm 30 W/m2
14:59 57.4 °F /  14.1 °C 54.5 °F /  12.5 °C 29.86in /  1011.1hPa SW 7.3mph /  11.7km/h 17mph /  27.4km/h 90% 0.00in /  0mm 37 W/m2
15:04 57.4 °F /  14.1 °C 54.5 °F /  12.5 °C 29.86in /  1011.1hPa SW 8.9mph /  14.3km/h 17mph /  27.4km/h 90% 0.00in /  0mm 37 W/m2
15:09 57.4 °F /  14.1 °C 54.5 °F /  12.5 °C 29.86in /  1011.1hPa SSW 6.6mph /  10.6km/h 14mph /  22.5km/h 90% 0.00in /  0mm 33 W/m2
15:14 57.3 °F /  14.1 °C 54.4 °F /  12.4 °C 29.86in /  1011.1hPa SW 5.9mph /  9.5km/h 17mph /  27.4km/h 90% 0.00in /  0mm 32 W/m2
15:19 57.2 °F /  14 °C 54.4 °F /  12.4 °C 29.86in /  1011.1hPa SW 5.4mph /  8.7km/h 13mph /  20.9km/h 90.2% 0.00in /  0mm 33 W/m2
15:24 57.2 °F /  14 °C 54.7 °F /  12.6 °C 29.86in /  1011.1hPa SW 4.1mph /  6.6km/h 11mph /  17.7km/h 91% 0.00in /  0mm 40 W/m2
15:29 57.2 °F /  14 °C 54.7 °F /  12.6 °C 29.86in /  1011.1hPa SW 3.6mph /  5.8km/h 11mph /  17.7km/h 91% 0.00in /  0mm 46 W/m2
15:34 57.2 °F /  14 °C 54.7 °F /  12.6 °C 29.85in /  1010.7hPa SW 6.9mph /  11.1km/h 11mph /  17.7km/h 91% 0.00in /  0mm 46 W/m2
15:39 57.4 °F /  14.1 °C 55 °F /  12.8 °C 29.85in /  1010.7hPa SW 3.8mph /  6.1km/h 11mph /  17.7km/h 91.9% 0.00in /  0mm 46 W/m2
15:44 57.5 °F /  14.2 °C 55.1 °F /  12.8 °C 29.85in /  1010.7hPa SW 5.2mph /  8.4km/h 10mph /  16.1km/h 92% 0.00in /  0mm 62 W/m2
15:49 57.6 °F /  14.2 °C 55.2 °F /  12.9 °C 29.84in /  1010.4hPa SW 5.8mph /  9.3km/h 12mph /  19.3km/h 92% 0.00in /  0mm 70 W/m2
15:54 57.7 °F /  14.3 °C 55.3 °F /  12.9 °C 29.84in /  1010.4hPa SW 3.6mph /  5.8km/h 9mph /  14.5km/h 92% 0.00in /  0mm 67 W/m2
15:59 57.7 °F /  14.3 °C 55.4 °F /  13 °C 29.84in /  1010.4hPa SW 4.1mph /  6.6km/h 10mph /  16.1km/h 92% 0.00in /  0mm 54 W/m2
16:04 57.8 °F /  14.3 °C 55.5 °F /  13.1 °C 29.84in /  1010.4hPa SW 4.2mph /  6.8km/h 9mph /  14.5km/h 92% 0.00in /  0mm 47 W/m2
16:09 57.9 °F /  14.4 °C 55.6 °F /  13.1 °C 29.84in /  1010.4hPa SW 4.1mph /  6.6km/h 9mph /  14.5km/h 92% 0.00in /  0mm 33 W/m2
16:14 57.9 °F /  14.4 °C 55.6 °F /  13.1 °C 29.84in /  1010.4hPa WSW 5.4mph /  8.7km/h 11mph /  17.7km/h 92% 0.00in /  0mm 32 W/m2
16:19 57.9 °F /  14.4 °C 55.6 °F /  13.1 °C 29.84in /  1010.4hPa SW 5.3mph /  8.5km/h 11mph /  17.7km/h 92% 0.00in /  0mm 35 W/m2
16:24 57.9 °F /  14.4 °C 55.6 °F /  13.1 °C 29.84in /  1010.4hPa WSW 4.5mph /  7.2km/h 10mph /  16.1km/h 92% 0.00in /  0mm 33 W/m2
16:29 57.9 °F /  14.4 °C 55.6 °F /  13.1 °C 29.84in /  1010.4hPa SW 4.1mph /  6.6km/h 10mph /  16.1km/h 92% 0.00in /  0mm 35 W/m2
16:34 57.9 °F /  14.4 °C 55.6 °F /  13.1 °C 29.84in /  1010.4hPa SW 4.7mph /  7.6km/h 11mph /  17.7km/h 92% 0.00in /  0mm 65 W/m2
16:39 58 °F /  14.4 °C 55.7 °F /  13.2 °C 29.83in /  1010hPa SW 3.1mph /  5km/h 8mph /  12.9km/h 92% 0.00in /  0mm 65 W/m2
16:44 58.1 °F /  14.5 °C 55.9 °F /  13.3 °C 29.83in /  1010hPa SW 2.9mph /  4.7km/h 7mph /  11.3km/h 92.3% 0.00in /  0mm 62 W/m2
16:49 58.1 °F /  14.5 °C 56.1 °F /  13.4 °C 29.83in /  1010hPa SW 5.1mph /  8.2km/h 10mph /  16.1km/h 93% 0.00in /  0mm 67 W/m2
16:54 58.3 °F /  14.6 °C 56.2 °F /  13.4 °C 29.83in /  1010hPa WSW 5.6mph /  9km/h 10mph /  16.1km/h 92.8% 0.00in /  0mm 72 W/m2
16:59 58.5 °F /  14.7 °C 56.1 °F /  13.4 °C 29.83in /  1010hPa WSW 4.1mph /  6.6km/h 10mph /  16.1km/h 92% 0.00in /  0mm 63 W/m2
17:04 58.5 °F /  14.7 °C 56.2 °F /  13.4 °C 29.83in /  1010hPa SW 4mph /  6.4km/h 9mph /  14.5km/h 92% 0.00in /  0mm 63 W/m2
17:09 58.6 °F /  14.8 °C 56.3 °F /  13.5 °C 29.83in /  1010hPa SW 5.2mph /  8.4km/h 9mph /  14.5km/h 92% 0.00in /  0mm 49 W/m2
17:14 58.6 °F /  14.8 °C 56.3 °F /  13.5 °C 29.83in /  1010hPa SW 6mph /  9.7km/h 11mph /  17.7km/h 92% 0.00in /  0mm 49 W/m2
17:19 58.6 °F /  14.8 °C 56.3 °F /  13.5 °C 29.82in /  1009.7hPa SW 5.5mph /  8.9km/h 11mph /  17.7km/h 92% 0.00in /  0mm 51 W/m2
17:24 58.6 °F /  14.8 °C 56.3 °F /  13.5 °C 29.83in /  1010hPa WSW 5.7mph /  9.2km/h 12mph /  19.3km/h 92% 0.00in /  0mm 44 W/m2
17:29 58.6 °F /  14.8 °C 56.3 °F /  13.5 °C 29.83in /  1010hPa WSW 4.7mph /  7.6km/h 9mph /  14.5km/h 92% 0.00in /  0mm 91 W/m2
17:34 58.7 °F /  14.8 °C 56.4 °F /  13.6 °C 29.83in /  1010hPa WSW 3.5mph /  5.6km/h 9mph /  14.5km/h 92% 0.00in /  0mm 42 W/m2
17:39 58.7 °F /  14.8 °C 56.4 °F /  13.6 °C 29.83in /  1010hPa WSW 3.4mph /  5.5km/h 8mph /  12.9km/h 92% 0.00in /  0mm 46 W/m2
17:44 58.8 °F /  14.9 °C 56.5 °F /  13.6 °C 29.83in /  1010hPa WSW 3mph /  4.8km/h 9mph /  14.5km/h 92% 0.00in /  0mm 46 W/m2
17:49 58.8 °F /  14.9 °C 56.5 °F /  13.6 °C 29.83in /  1010hPa WSW 4.5mph /  7.2km/h 9mph /  14.5km/h 92% 0.00in /  0mm 51 W/m2
17:54 58.8 °F /  14.9 °C 56.5 °F /  13.6 °C 29.83in /  1010hPa WSW 3.4mph /  5.5km/h 7mph /  11.3km/h 92% 0.00in /  0mm 60 W/m2
17:59 58.8 °F /  14.9 °C 56.5 °F /  13.6 °C 29.83in /  1010hPa WSW 3.9mph /  6.3km/h 9mph /  14.5km/h 92% 0.00in /  0mm 53 W/m2
18:04 58.8 °F /  14.9 °C 56.4 °F /  13.6 °C 29.83in /  1010hPa WSW 2.7mph /  4.3km/h 6mph /  9.7km/h 91.8% 0.00in /  0mm 33 W/m2
18:09 58.8 °F /  14.9 °C 56.3 °F /  13.5 °C 29.83in /  1010hPa WSW 4.6mph /  7.4km/h 8mph /  12.9km/h 91.5% 0.00in /  0mm 26 W/m2
18:14 58.7 °F /  14.8 °C 56 °F /  13.3 °C 29.83in /  1010hPa WSW 2.8mph /  4.5km/h 8mph /  12.9km/h 91% 0.00in /  0mm 18 W/m2
18:19 58.6 °F /  14.8 °C 55.9 °F /  13.3 °C 29.83in /  1010hPa WSW 3.4mph /  5.5km/h 7mph /  11.3km/h 91% 0.00in /  0mm 16 W/m2
18:24 58.6 °F /  14.8 °C 55.9 °F /  13.3 °C 29.83in /  1010hPa WSW 2.2mph /  3.5km/h 7mph /  11.3km/h 91% 0.00in /  0mm 11 W/m2
18:29 58.5 °F /  14.7 °C 55.8 °F /  13.2 °C 29.83in /  1010hPa WSW 2.8mph /  4.5km/h 5mph /  8km/h 91% 0.00in /  0mm 5 W/m2
18:34 58.5 °F /  14.7 °C 55.8 °F /  13.2 °C 29.83in /  1010hPa WSW 1.9mph /  3.1km/h 6mph /  9.7km/h 91% 0.00in /  0mm 0 W/m2
18:39 58.5 °F /  14.7 °C 55.8 °F /  13.2 °C 29.83in /  1010hPa WSW 2.1mph /  3.4km/h 5mph /  8km/h 91% 0.00in /  0mm 0 W/m2
18:44 58.4 °F /  14.7 °C 55.7 °F /  13.2 °C 29.82in /  1009.7hPa WSW 1.8mph /  2.9km/h 6mph /  9.7km/h 91% 0.00in /  0mm 0 W/m2
18:49 58.3 °F /  14.6 °C 55.6 °F /  13.1 °C 29.82in /  1009.7hPa WSW 2.2mph /  3.5km/h 5mph /  8km/h 91% 0.00in /  0mm 0 W/m2
18:54 58.1 °F /  14.5 °C 55.4 °F /  13 °C 29.82in /  1009.7hPa WSW 2.5mph /  4km/h 5mph /  8km/h 91% 0.00in /  0mm 0 W/m2
18:59 58.1 °F /  14.5 °C 55.4 °F /  13 °C 29.83in /  1010hPa WSW 2.2mph /  3.5km/h 6mph /  9.7km/h 91% 0.00in /  0mm 0 W/m2
19:04 58 °F /  14.4 °C 55.3 °F /  12.9 °C 29.83in /  1010hPa West 4.8mph /  7.7km/h 7mph /  11.3km/h 91% 0.00in /  0mm 0 W/m2
19:09 57.9 °F /  14.4 °C 55.2 °F /  12.9 °C 29.83in /  1010hPa West 4.6mph /  7.4km/h 8mph /  12.9km/h 91% 0.00in /  0mm 0 W/m2
19:14 57.9 °F /  14.4 °C 55.2 °F /  12.9 °C 29.83in /  1010hPa West 2.8mph /  4.5km/h 9mph /  14.5km/h 91% 0.00in /  0mm 0 W/m2
19:19 57.9 °F /  14.4 °C 55 °F /  12.8 °C 29.83in /  1010hPa West 2.7mph /  4.3km/h 6mph /  9.7km/h 90% 0.00in /  0mm 0 W/m2
19:24 57.9 °F /  14.4 °C 55 °F /  12.8 °C 29.83in /  1010hPa WSW 3.3mph /  5.3km/h 7mph /  11.3km/h 90% 0.00in /  0mm 0 W/m2
19:29 57.9 °F /  14.4 °C 55 °F /  12.8 °C 29.82in /  1009.7hPa WSW 1.5mph /  2.4km/h 5mph /  8km/h 90% 0.00in /  0mm 0 W/m2
19:34 57.9 °F /  14.4 °C 55 °F /  12.8 °C 29.83in /  1010hPa WSW 2.1mph /  3.4km/h 5mph /  8km/h 90% 0.00in /  0mm 0 W/m2
19:39 57.8 °F /  14.3 °C 54.9 °F /  12.7 °C 29.83in /  1010hPa WSW 2mph /  3.2km/h 4mph /  6.4km/h 90% 0.00in /  0mm 0 W/m2
19:44 57.8 °F /  14.3 °C 54.9 °F /  12.7 °C 29.83in /  1010hPa WSW 2.8mph /  4.5km/h 5mph /  8km/h 90% 0.00in /  0mm 0 W/m2
19:49 57.8 °F /  14.3 °C 55 °F /  12.8 °C 29.82in /  1009.7hPa WSW 1.9mph /  3.1km/h 5mph /  8km/h 90% 0.00in /  0mm 0 W/m2
19:54 57.8 °F /  14.3 °C 54.9 °F /  12.7 °C 29.82in /  1009.7hPa WSW 1.5mph /  2.4km/h 4mph /  6.4km/h 90% 0.00in /  0mm 0 W/m2
19:59 57.7 °F /  14.3 °C 54.9 °F /  12.7 °C 29.82in /  1009.7hPa WSW 1.1mph /  1.8km/h 4mph /  6.4km/h 90% 0.00in /  0mm 0 W/m2
20:04 57.7 °F /  14.3 °C 54.9 °F /  12.7 °C 29.82in /  1009.7hPa WSW 1.4mph /  2.3km/h 4mph /  6.4km/h 90% 0.00in /  0mm 0 W/m2
20:09 57.7 °F /  14.3 °C 54.9 °F /  12.7 °C 29.81in /  1009.4hPa WSW 1mph /  1.6km/h 4mph /  6.4km/h 90% 0.00in /  0mm 0 W/m2
20:14 57.7 °F /  14.3 °C 54.9 °F /  12.7 °C 29.82in /  1009.7hPa WSW 1.2mph /  1.9km/h 4mph /  6.4km/h 90% 0.00in /  0mm 0 W/m2
20:19 57.7 °F /  14.3 °C 54.8 °F /  12.7 °C 29.82in /  1009.7hPa WSW 1.8mph /  2.9km/h 5mph /  8km/h 90% 0.00in /  0mm 0 W/m2
20:24 57.6 °F /  14.2 °C 54.7 °F /  12.6 °C 29.82in /  1009.7hPa WSW 2.8mph /  4.5km/h 5mph /  8km/h 90% 0.00in /  0mm 0 W/m2
20:29 57.6 °F /  14.2 °C 55 °F /  12.8 °C 29.82in /  1009.7hPa WSW 1.5mph /  2.4km/h 5mph /  8km/h 91% 0.00in /  0mm 0 W/m2
20:34 57.6 °F /  14.2 °C 55 °F /  12.8 °C 29.82in /  1009.7hPa WSW 0.9mph /  1.4km/h 3mph /  4.8km/h 91% 0.00in /  0mm 0 W/m2
20:39 57.6 °F /  14.2 °C 55 °F /  12.8 °C 29.82in /  1009.7hPa WSW 0.9mph /  1.4km/h 3mph /  4.8km/h 91% 0.00in /  0mm 0 W/m2
20:44 57.6 °F /  14.2 °C 54.9 °F /  12.7 °C 29.82in /  1009.7hPa WSW 0.8mph /  1.3km/h 3mph /  4.8km/h 90.8% 0.00in /  0mm 0 W/m2
20:49 57.6 °F /  14.2 °C 55 °F /  12.8 °C 29.82in /  1009.7hPa WSW 1.5mph /  2.4km/h 5mph /  8km/h 90.9% 0.00in /  0mm 0 W/m2
20:54 57.5 °F /  14.2 °C 55 °F /  12.8 °C 29.82in /  1009.7hPa WSW 1.4mph /  2.3km/h 5mph /  8km/h 91% 0.00in /  0mm 0 W/m2
20:59 57.3 °F /  14.1 °C 54.5 °F /  12.5 °C 29.82in /  1009.7hPa WSW 2.6mph /  4.2km/h 5mph /  8km/h 90.3% 0.00in /  0mm 0 W/m2
21:04 57.2 °F /  14 °C 54.3 °F /  12.4 °C 29.81in /  1009.4hPa WSW 3.2mph /  5.1km/h 7mph /  11.3km/h 90% 0.00in /  0mm 0 W/m2
21:09 57 °F /  13.9 °C 54.1 °F /  12.3 °C 29.82in /  1009.7hPa WSW 2.5mph /  4km/h 6mph /  9.7km/h 90% 0.00in /  0mm 0 W/m2
21:14 57.1 °F /  13.9 °C 54 °F /  12.2 °C 29.82in /  1009.7hPa WSW 1mph /  1.6km/h 4mph /  6.4km/h 89.5% 0.00in /  0mm 0 W/m2
21:19 57 °F /  13.9 °C 53.8 °F /  12.1 °C 29.82in /  1009.7hPa WSW 1.8mph /  2.9km/h 5mph /  8km/h 89% 0.00in /  0mm 0 W/m2
21:24 57 °F /  13.9 °C 53.8 °F /  12.1 °C 29.81in /  1009.4hPa WSW 1.8mph /  2.9km/h 5mph /  8km/h 89% 0.00in /  0mm 0 W/m2
21:29 57 °F /  13.9 °C 53.8 °F /  12.1 °C 29.82in /  1009.7hPa West 1.9mph /  3.1km/h 5mph /  8km/h 89% 0.00in /  0mm 0 W/m2
21:34 57 °F /  13.9 °C 53.6 °F /  12 °C 29.82in /  1009.7hPa West 2.5mph /  4km/h 5mph /  8km/h 88.4% 0.00in /  0mm 0 W/m2
21:39 57 °F /  13.9 °C 53.4 °F /  11.9 °C 29.81in /  1009.4hPa West 3.2mph /  5.1km/h 7mph /  11.3km/h 88% 0.00in /  0mm 0 W/m2
21:44 57 °F /  13.9 °C 53.4 °F /  11.9 °C 29.81in /  1009.4hPa West 2.2mph /  3.5km/h 7mph /  11.3km/h 88% 0.00in /  0mm 0 W/m2
21:49 57 °F /  13.9 °C 53.4 °F /  11.9 °C 29.81in /  1009.4hPa West 1.8mph /  2.9km/h 5mph /  8km/h 88% 0.00in /  0mm 0 W/m2
21:54 57 °F /  13.9 °C 53.4 °F /  11.9 °C 29.81in /  1009.4hPa West 1mph /  1.6km/h 4mph /  6.4km/h 88% 0.00in /  0mm 0 W/m2
21:59 57 °F /  13.9 °C 53.4 °F /  11.9 °C 29.81in /  1009.4hPa West 0.5mph /  0.8km/h 5mph /  8km/h 88% 0.00in /  0mm 0 W/m2
22:04 57 °F /  13.9 °C 53.2 °F /  11.8 °C 29.81in /  1009.4hPa West 3.1mph /  5km/h 6mph /  9.7km/h 87.1% 0.00in /  0mm 0 W/m2
22:09 57.1 °F /  13.9 °C 53.3 °F /  11.8 °C 29.81in /  1009.4hPa WSW 2.4mph /  3.9km/h 6mph /  9.7km/h 87% 0.00in /  0mm 0 W/m2
22:14 57.2 °F /  14 °C 53.4 °F /  11.9 °C 29.80in /  1009hPa SW 1.8mph /  2.9km/h 7mph /  11.3km/h 87% 0.00in /  0mm 0 W/m2
22:19 57.1 °F /  13.9 °C 53.3 °F /  11.8 °C 29.81in /  1009.4hPa WSW 2.6mph /  4.2km/h 6mph /  9.7km/h 87.1% 0.00in /  0mm 0 W/m2
22:24 57 °F /  13.9 °C 53.4 °F /  11.9 °C 29.81in /  1009.4hPa SW 3.5mph /  5.6km/h 8mph /  12.9km/h 88% 0.00in /  0mm 0 W/m2
22:29 57 °F /  13.9 °C 53.4 °F /  11.9 °C 29.81in /  1009.4hPa SW 2.7mph /  4.3km/h 8mph /  12.9km/h 88% 0.00in /  0mm 0 W/m2
22:34 57 °F /  13.9 °C 53.4 °F /  11.9 °C 29.81in /  1009.4hPa SW 3.7mph /  6km/h 8mph /  12.9km/h 88% 0.00in /  0mm 0 W/m2
22:39 57 °F /  13.9 °C 53.4 °F /  11.9 °C 29.80in /  1009hPa SW 2.8mph /  4.5km/h 6mph /  9.7km/h 88% 0.00in /  0mm 0 W/m2
22:44 56.9 °F /  13.8 °C 53.3 °F /  11.8 °C 29.81in /  1009.4hPa SW 1.9mph /  3.1km/h 6mph /  9.7km/h 88% 0.00in /  0mm 0 W/m2
22:49 56.8 °F /  13.8 °C 53.2 °F /  11.8 °C 29.81in /  1009.4hPa SW 2.5mph /  4km/h 7mph /  11.3km/h 88% 0.00in /  0mm 0 W/m2
22:54 56.8 °F /  13.8 °C 53.2 °F /  11.8 °C 29.81in /  1009.4hPa WSW 1mph /  1.6km/h 7mph /  11.3km/h 88.1% 0.00in /  0mm 0 W/m2
22:59 56.8 °F /  13.8 °C 53.5 °F /  11.9 °C 29.81in /  1009.4hPa WSW 2.2mph /  3.5km/h 6mph /  9.7km/h 89% 0.00in /  0mm 0 W/m2
23:04 56.7 °F /  13.7 °C 53.4 °F /  11.9 °C 29.81in /  1009.4hPa WSW 2mph /  3.2km/h 5mph /  8km/h 89% 0.00in /  0mm 0 W/m2
23:09 56.7 °F /  13.7 °C 53.4 °F /  11.9 °C 29.81in /  1009.4hPa WSW 0.8mph /  1.3km/h 3mph /  4.8km/h 89% 0.00in /  0mm 0 W/m2
23:14 56.7 °F /  13.7 °C 53.4 °F /  11.9 °C 29.80in /  1009hPa WSW 1.3mph /  2.1km/h 4mph /  6.4km/h 89% 0.00in /  0mm 0 W/m2
23:19 56.7 °F /  13.7 °C 53.4 °F /  11.9 °C 29.80in /  1009hPa WSW 2.9mph /  4.7km/h 6mph /  9.7km/h 89% 0.00in /  0mm 0 W/m2
23:24 56.7 °F /  13.7 °C 53.4 °F /  11.9 °C 29.80in /  1009hPa WSW 2mph /  3.2km/h 6mph /  9.7km/h 89% 0.00in /  0mm 0 W/m2
23:29 56.7 °F /  13.7 °C 53.4 °F /  11.9 °C 29.80in /  1009hPa WSW 3.9mph /  6.3km/h 7mph /  11.3km/h 89% 0.00in /  0mm 0 W/m2
23:34 56.6 °F /  13.7 °C 53.4 °F /  11.9 °C 29.80in /  1009hPa WSW 3.7mph /  6km/h 7mph /  11.3km/h 89.3% 0.00in /  0mm 0 W/m2
23:39 56.6 °F /  13.7 °C 53.5 °F /  11.9 °C 29.80in /  1009hPa West 4.3mph /  6.9km/h 7mph /  11.3km/h 89.7% 0.00in /  0mm 0 W/m2
23:44 56.5 °F /  13.6 °C 53.3 °F /  11.8 °C 29.80in /  1009hPa WSW 2.3mph /  3.7km/h 7mph /  11.3km/h 89.3% 0.00in /  0mm 0 W/m2
23:49 56.5 °F /  13.6 °C 53.2 °F /  11.8 °C 29.80in /  1009hPa West 2.5mph /  4km/h 6mph /  9.7km/h 89% 0.00in /  0mm 0 W/m2
23:54 56.3 °F /  13.5 °C 53.1 °F /  11.7 °C 29.80in /  1009hPa West 2.8mph /  4.5km/h 6mph /  9.7km/h 89% 0.00in /  0mm 0 W/m2
23:59 56.3 °F /  13.5 °C 53.1 °F /  11.7 °C 29.80in /  1009hPa West 3.3mph /  5.3km/h 6mph /  9.7km/h 89% 0.00in /  0mm 0 W/m2
Bath Spa Weather
Compliments of Weather Underground - 2 mb